1870 Hurricane NOT_NAMED (1870242N13338)


IBTrACS version v04r00. Visit IBTrACS website for data access.
Please direct all questions to the IBTrACS Q and A forum

Storm track - Intensity - Wind Radii - Intensity Data - Source Data - All data

Summary Information

Storm ID 1870242N13338
Start Aug 29 12Z
Max Intensity 110 kt (Sep 11 00Z), 962 mb (Sep 13 18Z)
End Sep 13 18Z
ATCF IDs ,AL031870,AL041870
Track status Best track data.

Storm track plot

Map of storm track

Intensity plots

Map of storm track

Radial wind information

No radial wind information for this storm


Position and Intensity Table

BASIN ISO_TIME_________ NATURE LAT LON WMO WIND WMO PRES USA WIND USA PRES MLC WIND MLC PRES
degrees north degrees east kts mb kts mb kts mb
NA 1870-08-29 12:00:00 TS 13.00 -21.70 35
NA 15:00:00 TS 13.09 -22.30 37
NA 18:00:00 TS 13.20 -22.90 40
NA 21:00:00 TS 13.34 -23.50 45
NA 1870-08-30 00:00:00 TS 13.50 -24.10 50
NA 03:00:00 TS 13.66 -24.70 55
NA 06:00:00 TS 13.80 -25.30 60
NA 09:00:00 TS 13.90 -25.90 60
NA 12:00:00 TS 14.00 -26.50 60
NA 15:00:00 TS 14.15 -27.10 62
NA 18:00:00 TS 14.30 -27.70 65
NA 21:00:00 TS 14.40 -28.30 65
NA 1870-08-31 00:00:00 TS 14.50 -28.90 65
NA 03:00:00 TS 14.65 -29.50 65
NA 06:00:00 TS 14.80 -30.10 65
NA 09:00:00 TS 14.90 -30.70 65
NA 12:00:00 TS 15.00 -31.30 65
NA 15:00:00 TS 15.14 -31.90 65
NA 18:00:00 TS 15.30 -32.50 65
NA 21:00:00 TS 15.46 -33.11 65
NA 1870-09-01 00:00:00 TS 15.60 -33.70 50 65
NA 03:00:00 TS 15.71 -34.26 65
NA 06:00:00 TS 15.80 -34.80 50 65
NA 09:00:00 TS 15.90 -35.35 65
NA 12:00:00 TS 16.00 -35.90 60 65
NA 15:00:00 TS 16.09 -36.45 65
NA 18:00:00 TS 16.20 -37.00 60 65
NA 21:00:00 TS 16.34 -37.55 65
NA 1870-09-02 00:00:00 TS 16.50 -38.10 60 65
NA 03:00:00 TS 16.65 -38.65 65
NA 06:00:00 TS 16.90 -38.13 60 60 65
NA 09:00:00 TS 17.06 -38.38 60 65
NA 12:00:00 TS 17.16 -38.92 60 60 65
NA 15:00:00 TS 17.29 -39.55 60 65
NA 18:00:00 TS 17.43 -40.33 60 60 65
NA 21:00:00 TS 17.56 -41.16 55 65
NA 1870-09-03 00:00:00 TS 17.70 -42.00 50 50 65
NA 03:00:00 TS 17.87 -42.85 50 65
NA 06:00:00 TS 18.03 -43.70 50 50 65
NA 09:00:00 TS 18.17 -44.59 50 65
NA 12:00:00 TS 18.30 -45.43 50 50 65
NA 15:00:00 TS 18.40 -46.17 50 65
NA 18:00:00 TS 18.53 -46.87 50 50 65
NA 21:00:00 TS 18.74 -47.62 45 65
NA 1870-09-04 00:00:00 TS 18.97 -48.40 40 40 65
NA 03:00:00 TS 19.17 -49.20 40 65
NA 06:00:00 TS 19.37 -50.03 40 40 65
NA 09:00:00 TS 19.52 -50.91 40 65
NA 12:00:00 TS 19.80 -51.56 40 1004 40 1004 65
NA 15:00:00 TS 20.21 -51.98 40 65
NA 18:00:00 TS 20.77 -52.00 40 40 65
NA 21:00:00 TS 21.64 -51.05 65
NA 1870-09-05 00:00:00 TS 22.00 -51.60 65
NA 03:00:00 TS 22.37 -52.15 65
NA 06:00:00 TS 22.70 -52.70 65
NA 09:00:00 TS 22.92 -53.28 67
NA 12:00:00 TS 23.10 -53.80 70
NA 15:00:00 TS 23.29 -54.15 70
NA 18:00:00 TS 23.50 -54.50 70
NA 21:00:00 TS 23.77 -55.03 70
NA 1870-09-06 00:00:00 TS 24.00 -55.60 70
NA 03:00:00 TS 24.12 -56.07 70
NA 06:00:00 TS 24.20 -56.50 70 992
NA 09:00:00 TS 24.33 -56.95 70
NA 12:00:00 TS 24.40 -57.40 70
NA 15:00:00 TS 24.31 -57.85 70
NA 18:00:00 TS 24.20 -58.30 70
NA 21:00:00 TS 24.23 -58.74 70
NA 1870-09-07 00:00:00 TS 24.30 -59.20 70
NA 03:00:00 TS 24.33 -59.71 70
NA 06:00:00 TS 24.40 -60.20 70
NA 09:00:00 TS 24.58 -60.62 70
NA 12:00:00 TS 24.80 -61.00 70
NA 15:00:00 TS 24.95 -61.37 70
NA 18:00:00 TS 25.10 -61.70 70
NA 21:00:00 TS 25.30 -61.96 70
NA 1870-09-08 00:00:00 TS 25.50 -62.20 70
NA 03:00:00 TS 25.65 -62.48 70
NA 06:00:00 TS 25.80 -62.80 70
NA 09:00:00 TS 25.99 -63.16 70
NA 12:00:00 TS 26.20 -63.60 70
NA 15:00:00 TS 26.40 -64.16 70
NA 18:00:00 TS 26.60 -64.70 70
NA 21:00:00 TS 26.81 -65.05 72
NA 1870-09-09 00:00:00 TS 26.07 -64.87 70 70 75
NA 03:00:00 TS 25.90 -64.85 70 75
NA 06:00:00 TS 25.98 -64.92 70 70 75
NA 09:00:00 TS 26.19 -65.08 75 75
NA 12:00:00 TS 26.57 -65.33 80 80 75
NA 15:00:00 TS 26.95 -65.56 80 75
NA 18:00:00 TS 27.40 -65.80 80 80 75
NA 21:00:00 TS 27.95 -66.12 85 77
NA 1870-09-10 00:00:00 TS 28.60 -66.37 90 90 80
NA 03:00:00 TS 29.33 -66.48 90 80
NA 06:00:00 TS 30.13 -66.40 90 90 80
NA 09:00:00 TS 31.02 -66.10 95 80
NA 12:00:00 TS 31.87 -65.63 100 100 80
NA 15:00:00 TS 32.56 -65.13 100 80
NA 18:00:00 TS 33.20 -64.57 100 100 80
NA 21:00:00 TS 33.90 -63.98 105 82
NA 1870-09-11 00:00:00 TS 34.60 -63.33 110 110 85
NA 03:00:00 TS 35.28 -62.61 110 85
NA 06:00:00 TS 35.93 -61.87 110 110 85
NA 09:00:00 TS 36.33 -61.08 110 85
NA 12:00:00 TS 36.65 -60.20 110 110 85
NA 15:00:00 TS 36.87 -59.06 85
NA 18:00:00 TS 36.50 -57.60 110 85
NA 21:00:00 TS 37.05 -56.93 85
NA 1870-09-12 00:00:00 TS 37.60 -56.20 100 948 85
NA 03:00:00 TS 38.19 -55.24 85
NA 06:00:00 TS 38.80 -54.20 100 85 971
NA 09:00:00 TS 39.43 -53.27 85
NA 12:00:00 TS 40.10 -52.30 90 85
NA 15:00:00 TS 40.80 -51.17 82
NA 18:00:00 TS 41.50 -50.00 90 80
NA 21:00:00 TS 42.16 -48.89 77
NA 1870-09-13 00:00:00 TS 42.80 -47.80 80 75
NA 03:00:00 TS 43.44 -46.70 72
NA 06:00:00 TS 44.10 -45.60 80 70
NA 09:00:00 MX 45.91 -44.16 67
NA 12:00:00 MX 47.16 -42.60 70 70 65
NA 15:00:00 MX 47.84 -41.11 70 62
NA 18:00:00 ET 48.23 -39.73 70 70 60 962

Source Information

Agency Information
USA hurdat2-1851-2018-051019.txt:Line=1958:UNNAMED::hurdat2-1851-2018-051019.txt:Line=1975:UNNAMED
TOKYO
CMA
HKO
NEWDELHI
REUNION
BOM
NADI
WELLINGTON
DS824
TD9636
TD9635
NEUMANN
MLC

All available IBTrACS Data

SEASON BASIN SUBBASIN ISO_TIME_________ NATURE LAT LON WMO WIND WMO PRES WMO AGENCY DIST2LAND LANDFALL IFLAG USA AGENCY USA ATCF_ID USA LAT USA LON USA STATUS USA WIND USA PRES USA SSHS MLC LAT MLC LON MLC CLASS MLC WIND MLC PRES STORM SPEED STORM DIR
Year degrees north degrees east kts mb km km degrees north degrees east kts mb 1 degrees north degrees east kts mb kts degrees
1870 NA NA 1870-08-29 12:00:00 TS 13.00 -21.70 491 491 _____________O -1 13.00 -21.70 TS 35 12 279
1870 NA NA 15:00:00 TS 13.09 -22.30 548 548 _____________P -1 13.09 -22.30 TS 37 12 280
1870 NA NA 18:00:00 TS 13.20 -22.90 606 606 _____________O -1 13.20 -22.90 TS 40 12 282
1870 NA NA 21:00:00 TS 13.34 -23.50 666 663 _____________P -1 13.34 -23.50 TS 45 12 284
1870 NA NA 1870-08-30 00:00:00 TS 13.50 -24.10 724 724 _____________O -1 13.50 -24.10 TS 50 12 285
1870 NA NA 03:00:00 TS 13.66 -24.70 784 784 _____________P -1 13.66 -24.70 TS 55 12 284
1870 NA NA 06:00:00 TS 13.80 -25.30 847 847 _____________O -1 13.80 -25.30 TS 60 12 282
1870 NA NA 09:00:00 TS 13.90 -25.90 909 909 _____________P -1 13.90 -25.90 TS 60 12 280
1870 NA NA 12:00:00 TS 14.00 -26.50 973 973 _____________O -1 14.00 -26.50 TS 60 12 282
1870 NA NA 15:00:00 TS 14.15 -27.10 1036 1035 _____________P -1 14.15 -27.10 TS 62 12 284
1870 NA NA 18:00:00 TS 14.30 -27.70 1099 1099 _____________O -1 14.30 -27.70 HU 65 12 282
1870 NA NA 21:00:00 TS 14.40 -28.30 1163 1163 _____________P -1 14.40 -28.30 HU 65 12 280
1870 NA NA 1870-08-31 00:00:00 TS 14.50 -28.90 1227 1227 _____________O -1 14.50 -28.90 HU 65 12 282
1870 NA NA 03:00:00 TS 14.65 -29.50 1291 1291 _____________P -1 14.65 -29.50 HU 65 12 284
1870 NA NA 06:00:00 TS 14.80 -30.10 1355 1355 _____________O -1 14.80 -30.10 HU 65 12 282
1870 NA NA 09:00:00 TS 14.90 -30.70 1419 1419 _____________P -1 14.90 -30.70 HU 65 12 280
1870 NA NA 12:00:00 TS 15.00 -31.30 1484 1484 _____________O -1 15.00 -31.30 HU 65 12 282
1870 NA NA 15:00:00 TS 15.14 -31.90 1548 1548 _____________P -1 15.14 -31.90 HU 65 12 285
1870 NA NA 18:00:00 TS 15.30 -32.50 1612 1612 _____________O -1 15.30 -32.50 HU 65 12 285
1870 NA NA 21:00:00 TS 15.46 -33.11 1677 1677 _____________P -1 15.46 -33.11 HU 65 12 285
1870 NA NA 1870-09-01 00:00:00 TS 15.60 -33.70 50 atcf 1741 1741 _____________O -1 15.60 -33.70 HU 65 11 283
1870 NA NA 03:00:00 TS 15.71 -34.26 1806 1806 _____________P -1 15.71 -34.26 HU 65 11 281
1870 NA NA 06:00:00 TS 15.80 -34.80 50 atcf 1860 1860 _____________O -1 15.80 -34.80 HU 65 11 280
1870 NA NA 09:00:00 TS 15.90 -35.35 1924 1924 _____________P -1 15.90 -35.35 HU 65 11 281
1870 NA NA 12:00:00 TS 16.00 -35.90 60 atcf 1978 1978 _____________O -1 16.00 -35.90 HU 65 11 280
1870 NA NA 15:00:00 TS 16.09 -36.45 2042 2042 _____________P -1 16.09 -36.45 HU 65 11 281
1870 NA NA 18:00:00 TS 16.20 -37.00 60 atcf 2053 2019 _____________O -1 16.20 -37.00 HU 65 11 283
1870 NA NA 21:00:00 TS 16.34 -37.55 2011 1986 _____________P -1 16.34 -37.55 HU 65 11 286
1870 NA NA 1870-09-02 00:00:00 TS 16.50 -38.10 60 atcf 1986 1954 _____________O -1 16.50 -38.10 HU 65 11 286
1870 NA NA 03:00:00 TS 16.65 -38.65 1946 1946 _____________P -1 16.65 -38.65 HU 65 4 355
1870 NA NA 06:00:00 TS 16.90 -38.13 60 atcf 2016 2008 O____________O hurdat_atl AL031870 17.10 -36.00 TS 60 0 16.80 -39.20 HU 65 5 32
1870 NA NA 09:00:00 TS 17.06 -38.38 2008 1970 P____________P AL031870 17.13 -37.02 TS 60 0 16.96 -39.75 HU 65 8 289
1870 NA NA 12:00:00 TS 17.16 -38.92 60 atcf 1978 1942 O____________O hurdat_atl AL031870 17.20 -38.00 TS 60 0 17.10 -40.30 HU 65 11 282
1870 NA NA 15:00:00 TS 17.29 -39.55 1935 1894 P____________P AL031870 17.34 -38.91 TS 60 0 17.19 -40.84 HU 65 14 281
1870 NA NA 18:00:00 TS 17.43 -40.33 60 atcf 1894 1849 O____________O hurdat_atl AL031870 17.50 -39.80 TS 60 0 17.30 -41.40 HU 65 16 280
1870 NA NA 21:00:00 TS 17.56 -41.16 1851 1810 P____________P AL031870 17.60 -40.74 TS 55 0 17.48 -42.00 HU 65 16 280
1870 NA NA 1870-09-03 00:00:00 TS 17.70 -42.00 50 atcf 1810 1768 O____________O hurdat_atl AL031870 17.70 -41.70 TS 50 0 17.70 -42.60 HU 65 16 281
1870 NA NA 03:00:00 TS 17.87 -42.85 1777 1729 P____________P AL031870 17.85 -42.69 TS 50 0 17.90 -43.15 HU 65 17 282
1870 NA NA 06:00:00 TS 18.03 -43.70 50 atcf 1729 1697 O____________O hurdat_atl AL031870 18.00 -43.70 TS 50 0 18.10 -43.70 HU 65 17 281
1870 NA NA 09:00:00 TS 18.17 -44.59 1695 1662 P____________P AL031870 18.11 -44.73 TS 50 0 18.31 -44.30 HU 65 17 279
1870 NA NA 12:00:00 TS 18.30 -45.43 50 atcf 1662 1637 O____________O hurdat_atl AL031870 18.20 -45.70 TS 50 0 18.50 -44.90 HU 65 15 279
1870 NA NA 15:00:00 TS 18.40 -46.17 1632 1615 P____________P AL031870 18.29 -46.52 TS 50 0 18.63 -45.45 HU 65 14 280
1870 NA NA 18:00:00 TS 18.53 -46.87 50 atcf 1611 1602 O____________O hurdat_atl AL031870 18.40 -47.30 TS 50 0 18.80 -46.00 HU 65 14 284
1870 NA NA 21:00:00 TS 18.74 -47.62 1602 1589 P____________P AL031870 18.54 -48.13 TS 45 0 19.13 -46.60 HU 65 15 287
1870 NA NA 1870-09-04 00:00:00 TS 18.97 -48.40 40 atcf 1595 1577 O____________O hurdat_atl AL031870 18.70 -49.00 TS 40 0 19.50 -47.20 HU 65 16 286
1870 NA NA 03:00:00 TS 19.17 -49.20 1584 1530 P____________P AL031870 18.86 -49.92 TS 40 0 19.81 -47.76 HU 65 16 285
1870 NA NA 06:00:00 TS 19.37 -50.03 40 atcf 1530 1464 O____________O hurdat_atl AL031870 19.00 -50.90 TS 40 0 20.10 -48.30 HU 65 17 282
1870 NA NA 09:00:00 TS 19.52 -50.91 1464 1432 P____________P AL031870 19.08 -51.94 TS 40 0 20.40 -48.85 HU 65 15 287
1870 NA NA 12:00:00 TS 19.80 -51.56 40 1004 atcf 1432 1425 O____________O hurdat_atl AL031870 19.20 -53.00 TS 40 1004 0 20.70 -49.40 HU 65 12 304
1870 NA NA 15:00:00 TS 20.21 -51.98 1434 1431 P____________P AL031870 19.42 -54.02 TS 40 0 20.99 -49.95 HU 65 11 337
1870 NA NA 18:00:00 TS 20.77 -52.00 40 atcf 1449 1449 O____________O hurdat_atl AL031870 19.70 -55.00 TS 40 0 21.30 -50.50 HU 65 17 31
1870 NA NA 21:00:00 TS 21.64 -51.05 1555 1514 _____________P AL031870 TS -1 21.64 -51.05 HU 65 13 17
1870 NA NA 1870-09-05 00:00:00 TS 22.00 -51.60 1514 1472 _____________O AL031870 TS -1 22.00 -51.60 HU 65 13 306
1870 NA NA 03:00:00 TS 22.37 -52.15 1475 1425 _____________P AL031870 TS -1 22.37 -52.15 HU 65 12 305
1870 NA NA 06:00:00 TS 22.70 -52.70 1425 1383 _____________O AL031870 TS -1 22.70 -52.70 HU 65 12 298
1870 NA NA 09:00:00 TS 22.92 -53.28 1374 1333 _____________P AL031870 TS -1 22.92 -53.28 HU 67 11 292
1870 NA NA 12:00:00 TS 23.10 -53.80 1333 1309 _____________O AL031870 TS -1 23.10 -53.80 HU 70 9 295
1870 NA NA 15:00:00 TS 23.29 -54.15 1304 1285 _____________P AL031870 TS -1 23.29 -54.15 HU 70 8 302
1870 NA NA 18:00:00 TS 23.50 -54.50 1285 1248 _____________O AL031870 TS -1 23.50 -54.50 HU 70 9 300
1870 NA NA 21:00:00 TS 23.77 -55.03 1253 1210 _____________P AL031870 TS -1 23.77 -55.03 HU 70 11 296
1870 NA NA 1870-09-06 00:00:00 TS 24.00 -55.60 1210 1180 _____________O AL031870 TS -1 24.00 -55.60 HU 70 10 291
1870 NA NA 03:00:00 TS 24.12 -56.07 1172 1143 _____________P AL031870 TS -1 24.12 -56.07 HU 70 8 284
1870 NA NA 06:00:00 TS 24.20 -56.50 1143 1115 _____________O AL031870 TS -1 24.20 -56.50 HU 70 992 8 284
1870 NA NA 09:00:00 TS 24.33 -56.95 1115 1081 _____________P AL031870 TS -1 24.33 -56.95 HU 70 8 284
1870 NA NA 12:00:00 TS 24.40 -57.40 1081 1042 _____________O AL031870 TS -1 24.40 -57.40 HU 70 8 268
1870 NA NA 15:00:00 TS 24.31 -57.85 1034 995 _____________P AL031870 TS -1 24.31 -57.85 HU 70 8 256
1870 NA NA 18:00:00 TS 24.20 -58.30 995 964 _____________O AL031870 TS -1 24.20 -58.30 HU 70 8 264
1870 NA NA 21:00:00 TS 24.23 -58.74 964 934 _____________P AL031870 TS -1 24.23 -58.74 HU 70 8 277
1870 NA NA 1870-09-07 00:00:00 TS 24.30 -59.20 934 898 _____________O AL031870 TS -1 24.30 -59.20 HU 70 9 276
1870 NA NA 03:00:00 TS 24.33 -59.71 898 872 _____________P AL031870 TS -1 24.33 -59.71 HU 70 9 276
1870 NA NA 06:00:00 TS 24.40 -60.20 872 855 _____________O AL031870 TS -1 24.40 -60.20 HU 70 9 287
1870 NA NA 09:00:00 TS 24.58 -60.62 864 855 _____________P AL031870 TS -1 24.58 -60.62 HU 70 8 299
1870 NA NA 12:00:00 TS 24.80 -61.00 858 846 _____________O AL031870 TS -1 24.80 -61.00 HU 70 8 298
1870 NA NA 15:00:00 TS 24.95 -61.37 846 845 _____________P AL031870 TS -1 24.95 -61.37 HU 70 7 295
1870 NA NA 18:00:00 TS 25.10 -61.70 850 845 _____________O AL031870 TS -1 25.10 -61.70 HU 70 6 303
1870 NA NA 21:00:00 TS 25.30 -61.96 856 856 _____________P AL031870 TS -1 25.30 -61.96 HU 70 6 311
1870 NA NA 1870-09-08 00:00:00 TS 25.50 -62.20 867 863 _____________O AL031870 TS -1 25.50 -62.20 HU 70 6 307
1870 NA NA 03:00:00 TS 25.65 -62.48 865 865 _____________P AL031870 TS -1 25.65 -62.48 HU 70 6 299
1870 NA NA 06:00:00 TS 25.80 -62.80 876 872 _____________O AL031870 TS -1 25.80 -62.80 HU 70 7 299
1870 NA NA 09:00:00 TS 25.99 -63.16 884 881 _____________P AL031870 TS -1 25.99 -63.16 HU 70 8 299
1870 NA NA 12:00:00 TS 26.20 -63.60 895 893 _____________O AL031870 TS -1 26.20 -63.60 HU 70 10 294
1870 NA NA 15:00:00 TS 26.40 -64.16 905 904 _____________P AL031870 TS -1 26.40 -64.16 HU 70 11 292
1870 NA NA 18:00:00 TS 26.60 -64.70 921 920 _____________O AL031870 TS -1 26.60 -64.70 HU 70 9 297
1870 NA NA 21:00:00 TS 26.81 -65.05 940 863 _____________P AL031870 TS -1 26.81 -65.05 HU 72 6 196
1870 NA NA 1870-09-09 00:00:00 TS 26.07 -64.87 70 atcf 863 842 O____________O hurdat_atl AL041870 24.20 -64.00 HU 70 1 27.00 -65.30 HU 75 9 169
1870 NA NA 03:00:00 TS 25.90 -64.85 841 841 P____________P AL041870 24.64 -64.18 HU 70 1 27.15 -65.52 HU 75 1 207
1870 NA NA 06:00:00 TS 25.98 -64.92 70 atcf 852 851 O____________O hurdat_atl AL041870 25.10 -64.40 HU 70 1 27.30 -65.70 HU 75 4 324
1870 NA NA 09:00:00 TS 26.19 -65.08 873 873 P____________P AL041870 25.54 -64.69 HU 75 1 27.50 -65.86 HU 75 7 328
1870 NA NA 12:00:00 TS 26.57 -65.33 80 atcf 912 908 O____________O hurdat_atl AL041870 26.00 -65.00 HU 80 1 27.70 -66.00 HU 75 9 330
1870 NA NA 15:00:00 TS 26.95 -65.56 929 929 P____________P AL041870 26.50 -65.29 HU 80 1 27.85 -66.10 HU 75 9 333
1870 NA NA 18:00:00 TS 27.40 -65.80 80 atcf 970 970 O____________O hurdat_atl AL041870 27.10 -65.60 HU 80 1 28.00 -66.20 HU 75 11 334
1870 NA NA 21:00:00 TS 27.95 -66.12 1008 1008 P____________P AL041870 27.85 -65.97 HU 85 2 28.15 -66.40 HU 77 13 337
1870 NA NA 1870-09-10 00:00:00 TS 28.60 -66.37 90 atcf 1060 1060 O____________O hurdat_atl AL041870 28.70 -66.30 HU 90 2 28.40 -66.50 HU 80 14 347
1870 NA NA 03:00:00 TS 29.33 -66.48 1110 1058 P____________P AL041870 29.57 -66.52 HU 90 2 28.84 -66.40 HU 80 15 358
1870 NA NA 06:00:00 TS 30.13 -66.40 90 atcf 1058 1019 O____________O hurdat_atl AL041870 30.50 -66.60 HU 90 2 29.40 -66.00 HU 80 17 11
1870 NA NA 09:00:00 TS 31.02 -66.10 1021 1007 P____________P AL041870 31.53 -66.54 HU 95 2 29.99 -65.22 HU 80 19 21
1870 NA NA 12:00:00 TS 31.87 -65.63 100 atcf 1009 1004 O____________O hurdat_atl AL041870 32.50 -66.30 HU 100 3 30.60 -64.30 HU 80 18 28
1870 NA NA 15:00:00 TS 32.56 -65.13 1018 1018 P____________P AL041870 33.24 -65.92 HU 100 3 31.20 -63.55 HU 80 16 34
1870 NA NA 18:00:00 TS 33.20 -64.57 100 atcf 1037 1014 O____________O hurdat_atl AL041870 33.90 -65.40 HU 100 3 31.80 -62.90 HU 80 17 36
1870 NA NA 21:00:00 TS 33.90 -63.98 1014 977 P____________P AL041870 34.65 -64.79 HU 105 3 32.40 -62.35 HU 82 17 36
1870 NA NA 1870-09-11 00:00:00 TS 34.60 -63.33 110 atcf 982 950 O____________O hurdat_atl AL041870 35.40 -64.10 HU 110 3 33.00 -61.80 HU 85 18 39
1870 NA NA 03:00:00 TS 35.28 -62.61 941 891 P____________P AL041870 36.12 -63.36 HU 110 3 33.61 -61.11 HU 85 18 42
1870 NA NA 06:00:00 TS 35.93 -61.87 110 atcf 894 870 O____________O hurdat_atl AL041870 36.80 -62.60 HU 110 3 34.20 -60.40 HU 85 16 50
1870 NA NA 09:00:00 TS 36.33 -61.08 877 867 P____________P AL041870 37.41 -61.90 HU 110 3 34.75 -59.81 HU 85 15 62
1870 NA NA 12:00:00 TS 36.65 -60.20 110 atcf 871 871 O____________O hurdat_atl AL041870 38.00 -61.20 HU 110 3 35.30 -59.20 HU 85 17 71
1870 NA NA 15:00:00 TS 36.87 -59.06 902 902 P____________P AL041870 38.65 -60.42 HU -1 35.90 -58.42 HU 85 21 94
1870 NA NA 18:00:00 TS 36.50 -57.60 110 atcf 1010 974 P____________O AL041870 39.33 -59.58 HU -1 36.50 -57.60 HU 85 17 84
1870 NA NA 21:00:00 TS 37.05 -56.93 977 938 P____________P AL041870 40.05 -58.68 HU -1 37.05 -56.93 HU 85 16 45
1870 NA NA 1870-09-12 00:00:00 TS 37.60 -56.20 100 948 atcf 938 914 P____________O AL041870 40.78 -57.71 HU -1 37.60 -56.20 HU 85 18 50
1870 NA NA 03:00:00 TS 38.19 -55.24 918 869 P____________P AL041870 41.53 -56.68 HU -1 38.19 -55.24 HU 85 20 53
1870 NA NA 06:00:00 TS 38.80 -54.20 100 atcf 868 800 P____________O AL041870 42.28 -55.59 HU -1 38.80 -54.20 HU 85 971 20 51
1870 NA NA 09:00:00 TS 39.43 -53.27 800 725 P____________P AL041870 43.03 -54.44 HU -1 39.43 -53.27 HU 85 20 48
1870 NA NA 12:00:00 TS 40.10 -52.30 90 atcf 726 664 P____________O AL041870 43.77 -53.23 HU -1 40.10 -52.30 HU 85 21 50
1870 NA NA 15:00:00 TS 40.80 -51.17 664 618 P____________P AL041870 44.49 -51.97 HU -1 40.80 -51.17 HU 82 22 51
1870 NA NA 18:00:00 TS 41.50 -50.00 90 atcf 621 600 P____________O AL041870 45.19 -50.65 HU -1 41.50 -50.00 HU 80 22 52
1870 NA NA 21:00:00 TS 42.16 -48.89 595 593 P____________P AL041870 45.85 -49.29 HU -1 42.16 -48.89 HU 77 21 51
1870 NA NA 1870-09-13 00:00:00 TS 42.80 -47.80 80 atcf 598 596 P____________O AL041870 46.47 -47.88 HU -1 42.80 -47.80 HU 75 21 51
1870 NA NA 03:00:00 TS 43.44 -46.70 620 619 P____________P AL041870 47.04 -46.45 HU -1 43.44 -46.70 HU 72 21 51
1870 NA NA 06:00:00 TS 44.10 -45.60 80 atcf 648 644 P____________O AL041870 47.55 -44.98 HU -1 44.10 -45.60 HU 70 31 36
1870 NA NA 09:00:00 MX 45.91 -44.16 661 661 P____________P AL041870 48.01 -43.49 HU -1 44.81 -44.50 HU 67 37 34
1870 NA NA 12:00:00 MX 47.16 -42.60 70 atcf 750 750 O____________O hurdat_atl AL041870 48.40 -42.00 EX 70 -4 45.50 -43.40 HU 65 28 47
1870 NA NA 15:00:00 MX 47.84 -41.11 857 857 P____________P AL041870 48.72 -40.50 EX 70 -4 46.12 -42.30 HU 62 22 61
1870 NA NA 18:00:00 ET 48.23 -39.73 70 atcf 960 O____________O hurdat_atl AL041870 49.00 -39.00 EX 70 -4 46.70 -41.20 EX 60 962 20 67